Time;durP1;ratioP1;P1;durP2;ratioP2;P2;SDS_P1;SDS_P2;PMS_P1;PMS_P2;Temp;Humidity;BMP_temperature;BMP_pressure;BME280_temperature;BME280_humidity;BME280_pressure;Samples;Min_cycle;Max_cycle;Signal;HPM_P1;HPM_P2
2021/07/24 00:00:43;;;;;;;2.60;1.17;;;20.10;99.90;;;;;;5072865;28;20208;-75
2021/07/24 00:03:09;;;;;;;2.20;2.10;;;20.10;99.90;;;;;;5075286;28;20973;-75
2021/07/24 00:05:34;;;;;;;0.90;0.60;;;20.10;99.90;;;;;;5072353;28;20179;-75
2021/07/24 00:08:00;;;;;;;1.50;1.40;;;20.10;99.90;;;;;;5071553;28;20185;-75
2021/07/24 00:10:26;;;;;;;0.90;0.73;;;20.10;99.90;;;;;;5072870;28;20185;-75
2021/07/24 00:12:51;;;;;;;2.73;2.53;;;20.00;99.90;;;;;;5073033;28;20483;-74
2021/07/24 00:15:17;;;;;;;0.90;0.80;;;19.90;99.90;;;;;;5054256;28;20178;-74
2021/07/24 00:17:42;;;;;;;3.03;1.70;;;19.90;99.90;;;;;;5074022;28;20602;-75
2021/07/24 00:20:09;;;;;;;1.10;0.80;;;19.80;99.90;;;;;;5070322;28;20198;-74
2021/07/24 00:22:34;;;;;;;1.93;1.00;;;19.80;99.90;;;;;;5071651;28;20674;-74
2021/07/24 00:25:00;;;;;;;0.90;0.70;;;19.80;99.90;;;;;;5072798;28;20470;-74
2021/07/24 00:27:25;;;;;;;2.53;1.57;;;19.70;99.90;;;;;;5073247;28;20170;-73
2021/07/24 00:29:52;;;;;;;2.23;0.87;;;19.70;99.90;;;;;;5073057;28;20182;-74
2021/07/24 00:32:18;;;;;;;1.10;0.93;;;19.70;99.90;;;;;;5072850;28;20235;-74
2021/07/24 00:34:43;;;;;;;3.83;1.60;;;19.60;99.90;;;;;;5071486;28;20440;-75
2021/07/24 00:37:09;;;;;;;1.27;1.00;;;19.60;99.90;;;;;;5070237;28;20197;-76
2021/07/24 00:39:34;;;;;;;2.57;1.47;;;19.50;99.90;;;;;;5072607;28;20201;-75
2021/07/24 00:42:23;;;;;;;2.70;1.10;;;19.50;99.90;;;;;;5073771;28;20186;-74
2021/07/24 00:44:51;;;;;;;1.47;1.07;;;19.50;99.90;;;;;;5054585;28;20178;-74
2021/07/24 00:47:19;;;;;;;1.37;1.27;;;19.50;99.90;;;;;;5076391;28;20932;-75
2021/07/24 00:49:46;;;;;;;2.00;1.53;;;19.40;99.90;;;;;;5091080;28;20518;-75
2021/07/24 00:52:13;;;;;;;1.03;0.93;;;19.40;99.90;;;;;;5071085;28;20452;-76
2021/07/24 00:54:39;;;;;;;0.90;0.60;;;19.30;99.90;;;;;;5076774;28;20435;-75
2021/07/24 00:57:08;;;;;;;1.00;0.83;;;19.30;99.90;;;;;;5072275;28;20428;-74
2021/07/24 00:59:35;;;;;;;1.20;1.10;;;19.30;99.90;;;;;;5072169;28;20459;-74
2021/07/24 01:02:01;;;;;;;2.97;2.20;;;19.20;99.90;;;;;;5071354;28;20424;-74
2021/07/24 01:04:27;;;;;;;1.27;1.17;;;19.20;99.90;;;;;;5071600;28;20513;-75
2021/07/24 01:06:54;;;;;;;1.93;1.83;;;19.20;99.90;;;;;;5071469;28;20437;-75
2021/07/24 01:09:20;;;;;;;1.43;1.20;;;19.20;99.90;;;;;;5072418;28;20193;-75
2021/07/24 01:11:46;;;;;;;1.20;1.07;;;19.20;99.90;;;;;;5071252;28;20905;-75
2021/07/24 01:14:12;;;;;;;1.10;0.83;;;19.10;99.90;;;;;;5071472;28;20458;-75
2021/07/24 01:16:38;;;;;;;3.00;1.77;;;19.10;99.90;;;;;;5072587;28;20163;-75
2021/07/24 01:19:03;;;;;;;1.70;1.23;;;19.20;99.90;;;;;;5071339;28;20180;-76
2021/07/24 01:21:30;;;;;;;3.43;1.97;;;19.10;99.90;;;;;;5070199;28;20436;-76
2021/07/24 01:23:56;;;;;;;1.27;1.17;;;19.10;99.90;;;;;;5054382;28;20201;-75
2021/07/24 01:26:36;;;;;;;1.70;1.47;;;19.10;99.90;;;;;;5072338;28;20508;-74
2021/07/24 01:29:03;;;;;;;1.50;1.20;;;19.10;99.90;;;;;;5071857;28;20486;-73
2021/07/24 01:31:29;;;;;;;1.73;1.20;;;19.10;99.90;;;;;;5053169;28;20440;-74
2021/07/24 01:33:54;;;;;;;1.40;1.10;;;19.10;99.90;;;;;;5070900;28;20908;-74
2021/07/24 01:36:20;;;;;;;1.20;1.07;;;19.00;99.90;;;;;;5072495;28;20167;-76
2021/07/24 01:38:45;;;;;;;0.90;0.80;;;19.10;99.90;;;;;;5071466;28;20253;-74
2021/07/24 01:41:13;;;;;;;1.57;0.90;;;19.00;99.90;;;;;;5054464;28;20294;-76
2021/07/24 01:43:39;;;;;;;2.23;1.00;;;19.00;99.90;;;;;;5080750;28;20456;-75
2021/07/24 01:46:05;;;;;;;2.27;1.60;;;18.90;99.90;;;;;;5071422;28;20507;-74
2021/07/24 01:48:42;;;;;;;2.73;1.40;;;18.90;99.90;;;;;;5052842;28;20453;-76
2021/07/24 01:54:02;;;;;;;1.30;1.00;;;18.90;99.90;;;;;;5071296;28;20446;-76
2021/07/24 01:56:31;;;;;;;1.40;1.20;;;18.80;99.90;;;;;;5070481;28;20424;-75
2021/07/24 01:58:57;;;;;;;1.93;0.90;;;18.70;99.90;;;;;;5071726;28;20424;-74
2021/07/24 02:01:26;;;;;;;7.70;3.83;;;18.70;99.90;;;;;;5070470;28;20471;-75
2021/07/24 02:03:54;;;;;;;2.00;1.90;;;18.70;99.90;;;;;;5071418;28;20190;-74
2021/07/24 02:06:20;;;;;;;0.90;0.80;;;18.60;99.90;;;;;;5070740;28;20482;-74
2021/07/24 02:08:51;;;;;;;1.20;1.10;;;18.60;99.90;;;;;;5079789;28;20403;-75
2021/07/24 02:11:19;;;;;;;1.30;1.20;;;18.60;99.90;;;;;;5071818;28;20925;-75
2021/07/24 02:13:47;;;;;;;2.70;1.73;;;18.60;99.90;;;;;;5071636;28;20523;-75
2021/07/24 02:16:14;;;;;;;1.43;0.97;;;18.60;99.90;;;;;;5073739;28;20921;-75
2021/07/24 02:18:40;;;;;;;2.93;1.30;;;18.50;99.90;;;;;;5059135;28;20439;-75
2021/07/24 02:21:07;;;;;;;1.40;1.10;;;18.50;99.90;;;;;;5055225;28;20501;-74
2021/07/24 02:23:33;;;;;;;1.00;0.83;;;18.50;99.90;;;;;;5069751;28;20539;-74
2021/07/24 02:25:59;;;;;;;1.67;1.57;;;18.50;99.90;;;;;;5071748;28;20397;-74
2021/07/24 02:28:24;;;;;;;1.23;1.13;;;18.50;99.90;;;;;;5071497;28;20432;-76
2021/07/24 02:30:51;;;;;;;5.47;1.53;;;18.50;99.90;;;;;;5075387;28;20178;-75
2021/07/24 02:33:18;;;;;;;2.63;1.27;;;18.50;99.90;;;;;;5038203;28;20194;-75
2021/07/24 02:35:43;;;;;;;2.03;1.20;;;18.40;99.90;;;;;;5075845;28;20428;-75
2021/07/24 02:38:09;;;;;;;1.50;1.17;;;18.40;99.90;;;;;;5072364;28;20411;-76
2021/07/24 02:40:36;;;;;;;0.83;0.67;;;18.40;99.90;;;;;;5080435;28;20655;-75
2021/07/24 02:43:02;;;;;;;1.53;1.43;;;18.30;99.90;;;;;;5074216;28;20718;-76
2021/07/24 02:45:27;;;;;;;1.77;1.53;;;18.40;99.90;;;;;;5070377;28;20424;-74
2021/07/24 02:47:53;;;;;;;1.83;1.73;;;18.40;99.90;;;;;;5069575;28;20432;-74
2021/07/24 02:50:18;;;;;;;1.70;1.03;;;18.40;99.90;;;;;;5069974;28;20748;-75
2021/07/24 02:52:44;;;;;;;1.67;1.57;;;18.40;99.90;;;;;;5069215;28;20248;-76
2021/07/24 02:55:10;;;;;;;2.97;2.73;;;18.40;99.90;;;;;;5069866;28;20244;-75
2021/07/24 02:57:35;;;;;;;4.37;3.50;;;18.40;99.90;;;;;;5071077;28;20653;-75
2021/07/24 03:00:02;;;;;;;4.03;3.73;;;18.40;99.90;;;;;;5071506;28;20607;-75
2021/07/24 03:02:28;;;;;;;1.93;1.80;;;18.40;99.90;;;;;;5070929;28;20186;-75
2021/07/24 03:04:54;;;;;;;2.20;1.53;;;18.40;99.90;;;;;;5071190;28;20769;-74
2021/07/24 03:07:19;;;;;;;1.40;1.30;;;18.40;99.90;;;;;;5070764;28;20174;-76
2021/07/24 03:09:45;;;;;;;0.80;0.80;;;18.40;99.90;;;;;;5074412;28;20591;-75
2021/07/24 03:12:10;;;;;;;2.13;1.30;;;18.40;99.90;;;;;;5077513;28;20186;-75
2021/07/24 03:14:36;;;;;;;2.00;1.27;;;18.40;99.90;;;;;;5040509;28;20179;-76
2021/07/24 03:17:02;;;;;;;1.60;1.20;;;18.40;99.90;;;;;;5070748;28;20182;-76
2021/07/24 03:19:27;;;;;;;2.80;2.60;;;18.40;99.90;;;;;;5053912;28;20210;-76
2021/07/24 03:21:53;;;;;;;5.37;2.67;;;18.40;99.90;;;;;;5070986;28;20178;-75
2021/07/24 03:24:18;;;;;;;2.90;1.77;;;18.40;99.90;;;;;;5070319;28;20679;-76
2021/07/24 03:26:44;;;;;;;1.67;1.40;;;18.40;99.90;;;;;;5069870;28;20174;-76
2021/07/24 03:29:09;;;;;;;3.50;1.77;;;18.40;99.90;;;;;;5073764;28;20307;-75
2021/07/24 03:31:35;;;;;;;1.17;0.90;;;18.40;99.90;;;;;;5073782;28;20167;-74
2021/07/24 03:34:01;;;;;;;1.30;0.93;;;18.30;99.90;;;;;;5073387;28;20570;-75
2021/07/24 03:36:26;;;;;;;5.37;2.90;;;18.30;99.90;;;;;;5056591;28;20166;-74
2021/07/24 03:38:52;;;;;;;10.23;7.20;;;18.20;99.90;;;;;;5073489;28;20163;-74
2021/07/24 03:41:17;;;;;;;3.70;3.40;;;18.20;99.90;;;;;;5056091;28;20206;-75
2021/07/24 03:43:43;;;;;;;3.10;2.40;;;18.20;99.90;;;;;;5076238;28;20198;-76
2021/07/24 03:46:16;;;;;;;1.73;1.00;;;18.30;99.90;;;;;;5074237;28;20170;-75
2021/07/24 03:48:43;;;;;;;1.73;0.80;;;18.30;99.90;;;;;;5073527;28;20634;-74
2021/07/24 03:51:12;;;;;;;1.27;0.97;;;18.30;99.90;;;;;;5072825;28;20460;-74
2021/07/24 03:53:39;;;;;;;1.77;1.67;;;18.30;99.90;;;;;;5071909;28;20527;-75
2021/07/24 03:56:06;;;;;;;1.17;1.07;;;18.40;99.90;;;;;;5067860;28;20838;-76
2021/07/24 03:58:31;;;;;;;3.97;1.87;;;18.30;99.90;;;;;;5073553;28;20412;-75
2021/07/24 04:00:59;;;;;;;10.13;1.17;;;18.30;99.90;;;;;;5055565;28;20509;-75
2021/07/24 04:03:25;;;;;;;1.97;1.10;;;18.30;99.90;;;;;;5073231;28;20228;-75
2021/07/24 04:05:52;;;;;;;1.00;0.90;;;18.30;99.90;;;;;;5072609;28;20452;-75
2021/07/24 04:08:18;;;;;;;1.30;0.93;;;18.30;99.90;;;;;;5073642;28;20841;-74
2021/07/24 04:10:44;;;;;;;2.33;1.80;;;18.30;99.90;;;;;;5072664;28;20435;-74
2021/07/24 04:13:11;;;;;;;1.70;1.60;;;18.30;99.90;;;;;;5073118;28;20463;-74
2021/07/24 04:15:38;;;;;;;4.60;1.67;;;18.30;99.90;;;;;;5072340;28;20420;-76
2021/07/24 04:18:04;;;;;;;1.83;1.57;;;18.40;99.90;;;;;;5073985;28;20761;-74
2021/07/24 04:20:30;;;;;;;1.37;1.27;;;18.40;99.90;;;;;;5072293;28;20821;-74
2021/07/24 04:22:56;;;;;;;4.07;1.50;;;18.40;99.90;;;;;;5055284;28;20448;-75
2021/07/24 04:25:21;;;;;;;5.53;2.87;;;18.40;99.90;;;;;;5072891;28;20428;-74
2021/07/24 04:27:48;;;;;;;1.57;1.47;;;18.50;99.90;;;;;;5074057;28;20174;-78
2021/07/24 04:30:13;;;;;;;1.83;1.60;;;18.50;99.90;;;;;;5073106;28;20628;-75
2021/07/24 04:32:39;;;;;;;1.03;0.93;;;18.50;99.90;;;;;;5071779;28;20459;-77
2021/07/24 04:35:05;;;;;;;3.80;2.17;;;18.60;99.90;;;;;;5073193;28;20251;-74
2021/07/24 04:37:30;;;;;;;2.60;1.93;;;18.60;99.90;;;;;;5072667;28;20183;-75
2021/07/24 04:39:56;;;;;;;4.10;1.37;;;18.70;99.90;;;;;;5072025;28;20455;-75
2021/07/24 04:42:22;;;;;;;2.13;1.30;;;18.70;99.90;;;;;;5072137;28;20178;-75
2021/07/24 04:44:47;;;;;;;2.97;1.30;;;18.80;99.90;;;;;;5073241;28;20522;-73
2021/07/24 04:47:13;;;;;;;1.27;0.90;;;18.90;99.90;;;;;;5072593;28;20227;-74
2021/07/24 04:49:48;;;;;;;1.80;1.70;;;18.90;99.90;;;;;;5075678;28;20182;-73
2021/07/24 04:52:14;;;;;;;1.77;1.67;;;18.90;99.90;;;;;;5077039;28;20836;-74
2021/07/24 04:54:41;;;;;;;6.90;1.63;;;18.90;99.90;;;;;;5070253;28;20520;-75
2021/07/24 04:57:07;;;;;;;1.33;1.23;;;19.00;99.90;;;;;;5055020;28;20985;-74
2021/07/24 04:59:35;;;;;;;1.80;1.67;;;19.10;99.90;;;;;;5070496;28;20956;-74
2021/07/24 05:02:00;;;;;;;1.40;1.30;;;19.10;99.90;;;;;;5069712;28;20428;-76
2021/07/24 05:04:26;;;;;;;2.37;1.53;;;19.20;99.90;;;;;;5071546;28;20597;-76
2021/07/24 05:06:52;;;;;;;2.90;1.67;;;19.30;99.90;;;;;;5072887;28;20163;-75
2021/07/24 05:09:17;;;;;;;2.93;1.63;;;19.40;99.90;;;;;;5072220;28;20220;-76
2021/07/24 05:11:43;;;;;;;3.57;2.00;;;19.40;99.90;;;;;;5070213;28;20877;-75
2021/07/24 05:14:08;;;;;;;2.80;2.00;;;19.40;99.90;;;;;;5072260;28;20297;-74
2021/07/24 05:16:34;;;;;;;3.83;2.07;;;19.50;99.90;;;;;;5070487;28;20166;-75
2021/07/24 05:19:00;;;;;;;4.53;1.43;;;19.50;99.90;;;;;;5055000;28;20514;-75
2021/07/24 05:21:26;;;;;;;2.33;2.13;;;19.50;99.90;;;;;;5087036;28;20593;-75
2021/07/24 05:23:52;;;;;;;1.50;1.30;;;19.60;99.90;;;;;;5084509;28;20448;-75
2021/07/24 05:26:18;;;;;;;3.10;1.37;;;19.70;99.90;;;;;;5070687;28;20560;-75
2021/07/24 05:28:43;;;;;;;2.70;1.50;;;19.80;99.90;;;;;;5071849;28;20190;-75
2021/07/24 05:31:16;;;;;;;1.90;1.77;;;19.80;99.90;;;;;;5071811;28;20439;-76
2021/07/24 05:33:42;;;;;;;2.83;2.20;;;19.90;99.90;;;;;;5071003;28;20202;-75
2021/07/24 05:36:07;;;;;;;1.17;1.07;;;20.00;99.90;;;;;;5071012;28;21006;-76
2021/07/24 05:38:33;;;;;;;6.10;2.00;;;20.00;99.90;;;;;;5071404;28;20252;-76
2021/07/24 05:41:00;;;;;;;2.63;1.80;;;20.10;99.90;;;;;;5052723;28;20292;-75
2021/07/24 05:43:26;;;;;;;3.23;2.17;;;20.20;99.90;;;;;;5073373;28;20546;-74
2021/07/24 05:45:52;;;;;;;4.90;2.20;;;20.30;99.90;;;;;;5069862;28;20925;-74
2021/07/24 05:48:17;;;;;;;6.57;2.37;;;20.40;99.90;;;;;;5056708;28;20495;-74
2021/07/24 05:50:43;;;;;;;2.63;2.33;;;20.40;99.90;;;;;;5071832;28;20631;-74
2021/07/24 05:53:08;;;;;;;2.53;2.33;;;20.50;99.90;;;;;;5072112;28;20210;-75
2021/07/24 05:55:34;;;;;;;2.27;2.13;;;20.60;99.90;;;;;;5057137;28;20182;-75
2021/07/24 05:57:59;;;;;;;5.37;4.50;;;20.70;99.90;;;;;;5081129;28;20177;-76
2021/07/24 06:00:25;;;;;;;2.37;1.73;;;20.80;99.90;;;;;;5072085;28;20198;-75
2021/07/24 06:02:50;;;;;;;1.77;1.67;;;20.80;99.90;;;;;;5072148;28;20185;-76
2021/07/24 06:05:16;;;;;;;4.00;2.80;;;20.90;99.90;;;;;;5052987;28;20799;-74
2021/07/24 06:07:42;;;;;;;1.70;1.60;;;21.00;99.90;;;;;;5070975;28;20178;-74
2021/07/24 06:10:08;;;;;;;1.73;1.63;;;21.10;99.90;;;;;;5070893;28;20189;-75
2021/07/24 06:12:33;;;;;;;2.53;2.33;;;21.00;99.90;;;;;;5071062;28;20263;-76
2021/07/24 06:15:00;;;;;;;3.10;2.83;;;21.10;99.90;;;;;;5071723;28;20412;-75
2021/07/24 06:17:25;;;;;;;4.90;1.80;;;21.20;99.90;;;;;;5070297;28;20194;-75
2021/07/24 06:19:51;;;;;;;1.90;1.10;;;21.30;99.90;;;;;;5071332;28;20554;-75
2021/07/24 06:22:16;;;;;;;2.33;1.40;;;21.40;99.90;;;;;;5070124;28;20174;-75
2021/07/24 06:24:42;;;;;;;2.33;1.67;;;21.40;99.90;;;;;;5070612;28;20543;-75
2021/07/24 06:27:07;;;;;;;3.10;2.63;;;21.40;99.90;;;;;;5070061;28;21714;-75
2021/07/24 06:29:33;;;;;;;3.10;1.37;;;21.40;99.90;;;;;;5071024;28;20190;-75
2021/07/24 06:31:58;;;;;;;2.80;1.83;;;21.50;99.90;;;;;;5070556;28;20208;-74
2021/07/24 06:34:24;;;;;;;3.10;1.80;;;21.50;99.90;;;;;;5070439;28;20281;-75
2021/07/24 06:36:49;;;;;;;2.50;1.97;;;21.60;99.90;;;;;;5070794;28;20231;-74
2021/07/24 06:39:15;;;;;;;2.30;2.20;;;21.60;99.90;;;;;;5085230;28;20193;-75
2021/07/24 06:41:41;;;;;;;2.57;1.70;;;21.70;99.90;;;;;;5052287;28;20178;-75
2021/07/24 06:44:07;;;;;;;3.73;1.47;;;21.70;99.90;;;;;;5070426;28;20327;-75
2021/07/24 06:46:33;;;;;;;1.20;1.10;;;21.70;99.90;;;;;;5070748;28;20504;-75
2021/07/24 06:48:59;;;;;;;3.50;1.90;;;21.80;99.90;;;;;;5081081;28;20514;-75
2021/07/24 06:51:25;;;;;;;2.20;2.00;;;21.80;99.90;;;;;;5070434;28;20177;-75
2021/07/24 06:53:51;;;;;;;2.30;2.20;;;21.90;99.90;;;;;;5068173;28;20464;-75
2021/07/24 06:56:17;;;;;;;2.40;2.20;;;21.90;99.90;;;;;;5071183;28;20181;-75
2021/07/24 06:58:43;;;;;;;1.50;1.40;;;22.00;99.90;;;;;;5072235;28;20409;-75
2021/07/24 07:01:08;;;;;;;2.00;1.80;;;22.10;99.90;;;;;;5077889;28;20206;-75
2021/07/24 07:03:35;;;;;;;2.03;1.93;;;22.20;99.90;;;;;;5073942;28;20200;-75
2021/07/24 07:06:03;;;;;;;1.63;1.20;;;22.30;99.90;;;;;;5074453;28;20174;-75
2021/07/24 07:08:28;;;;;;;2.50;1.77;;;22.30;99.90;;;;;;5074163;28;20420;-75
2021/07/24 07:10:59;;;;;;;3.27;2.17;;;22.40;99.90;;;;;;5074440;28;20420;-75
2021/07/24 07:13:25;;;;;;;3.80;2.60;;;22.50;99.90;;;;;;5074211;28;20224;-75
2021/07/24 07:15:50;;;;;;;4.10;2.70;;;22.50;99.90;;;;;;5074258;28;20905;-75
2021/07/24 07:18:16;;;;;;;3.20;2.90;;;22.60;99.90;;;;;;5075064;28;20261;-75
2021/07/24 07:20:42;;;;;;;1.73;1.60;;;22.70;99.90;;;;;;5056540;28;20236;-75
2021/07/24 07:23:07;;;;;;;3.50;2.07;;;22.70;99.90;;;;;;5080642;28;20209;-75
2021/07/24 07:25:33;;;;;;;3.60;1.50;;;22.90;99.90;;;;;;5068035;28;20695;-74
2021/07/24 07:27:58;;;;;;;1.90;1.70;;;22.90;99.90;;;;;;5094256;28;20193;-75
2021/07/24 07:30:24;;;;;;;1.33;1.23;;;23.00;99.90;;;;;;5087968;28;20210;-74
2021/07/24 07:32:49;;;;;;;3.63;3.27;;;23.00;99.90;;;;;;5074053;28;20201;-74
2021/07/24 07:35:15;;;;;;;1.23;0.97;;;23.00;99.90;;;;;;5084529;28;20581;-75
2021/07/24 07:37:48;;;;;;;5.13;1.67;;;23.10;99.90;;;;;;5081162;28;20185;-75
2021/07/24 07:40:14;;;;;;;1.40;1.30;;;23.00;99.90;;;;;;5079506;28;20678;-74
2021/07/24 07:42:40;;;;;;;1.80;1.70;;;23.10;99.90;;;;;;5074009;28;20481;-75
2021/07/24 07:45:06;;;;;;;3.50;2.97;;;23.10;99.90;;;;;;5073216;28;20843;-76
2021/07/24 07:47:31;;;;;;;1.17;1.07;;;23.10;99.90;;;;;;5073300;28;20577;-75
2021/07/24 07:49:57;;;;;;;1.87;1.67;;;23.10;99.90;;;;;;5056616;28;20501;-76
2021/07/24 07:52:23;;;;;;;1.30;1.20;;;23.00;99.90;;;;;;5070785;28;20182;-75
2021/07/24 07:54:49;;;;;;;2.23;1.77;;;23.00;99.90;;;;;;5071700;28;20580;-75
2021/07/24 07:57:15;;;;;;;2.33;1.73;;;23.00;99.90;;;;;;5074285;28;20488;-75
2021/07/24 07:59:40;;;;;;;4.60;1.67;;;23.00;99.90;;;;;;5072387;28;20198;-75
2021/07/24 08:02:06;;;;;;;1.93;1.40;;;23.00;99.90;;;;;;5071697;28;20253;-76
2021/07/24 08:04:32;;;;;;;3.77;1.77;;;23.00;99.90;;;;;;5073069;28;20190;-75
2021/07/24 08:06:58;;;;;;;3.90;1.83;;;23.00;99.90;;;;;;5071764;28;20179;-75
2021/07/24 08:09:23;;;;;;;2.03;1.60;;;23.10;99.90;;;;;;5074144;28;20488;-75
2021/07/24 08:11:50;;;;;;;2.30;2.10;;;23.10;99.90;;;;;;5071993;28;20174;-75
2021/07/24 08:14:15;;;;;;;2.70;1.70;;;23.10;99.90;;;;;;5056665;28;20257;-75
2021/07/24 08:16:43;;;;;;;1.23;1.13;;;23.10;99.90;;;;;;5086107;28;20460;-76
2021/07/24 08:19:09;;;;;;;5.50;4.20;;;23.10;99.90;;;;;;5055003;28;20178;-75
2021/07/24 08:21:34;;;;;;;2.80;1.57;;;23.20;99.90;;;;;;5071793;28;20456;-76
2021/07/24 08:24:00;;;;;;;3.20;2.23;;;23.20;99.90;;;;;;5072532;28;20198;-76
2021/07/24 08:26:25;;;;;;;1.87;1.77;;;23.20;99.90;;;;;;5074222;28;20184;-75
2021/07/24 08:28:51;;;;;;;3.67;2.67;;;23.10;99.90;;;;;;5073594;28;20646;-76
2021/07/24 08:31:16;;;;;;;2.80;2.60;;;22.90;99.90;;;;;;5071818;28;20261;-75
2021/07/24 08:33:42;;;;;;;1.50;1.30;;;23.00;99.90;;;;;;5073614;28;20194;-75
2021/07/24 08:36:07;;;;;;;3.30;3.10;;;22.80;99.90;;;;;;5053920;28;20178;-75
2021/07/24 08:38:33;;;;;;;2.07;1.40;;;22.90;99.90;;;;;;5072899;28;20189;-75
2021/07/24 08:40:59;;;;;;;3.10;1.90;;;22.90;99.90;;;;;;5073019;28;20567;-75
2021/07/24 08:43:24;;;;;;;1.50;1.40;;;22.80;99.90;;;;;;5071069;28;20201;-75
2021/07/24 08:45:51;;;;;;;4.13;1.70;;;22.80;99.90;;;;;;5053957;28;20174;-75
2021/07/24 08:48:16;;;;;;;1.73;1.63;;;22.90;99.90;;;;;;5069291;28;20185;-76
2021/07/24 08:50:44;;;;;;;3.43;2.00;;;22.80;99.90;;;;;;5042733;28;20425;-75
2021/07/24 08:53:15;;;;;;;3.17;2.70;;;22.80;99.90;;;;;;5051131;28;20194;-75
2021/07/24 08:55:42;;;;;;;2.27;1.80;;;22.70;99.90;;;;;;5065474;28;22166;-75
2021/07/24 08:58:16;;;;;;;5.17;3.63;;;22.60;99.90;;;;;;5064767;28;20425;-76
2021/07/24 09:00:43;;;;;;;3.13;1.67;;;22.60;99.90;;;;;;5063422;28;20467;-76
2021/07/24 09:03:17;;;;;;;2.60;1.80;;;22.50;99.90;;;;;;5043797;28;20513;-75
2021/07/24 09:05:50;;;;;;;2.87;1.93;;;22.40;99.90;;;;;;5065349;28;20421;-76
2021/07/24 09:08:17;;;;;;;2.70;2.00;;;22.30;99.90;;;;;;5064681;28;20913;-75
2021/07/24 09:10:45;;;;;;;1.90;1.30;;;22.20;99.90;;;;;;5064636;28;20430;-75
2021/07/24 09:13:10;;;;;;;1.50;1.40;;;22.20;99.90;;;;;;5064353;28;20449;-75
2021/07/24 09:15:36;;;;;;;2.10;1.40;;;22.20;99.90;;;;;;5070958;28;20856;-75
2021/07/24 09:18:01;;;;;;;1.60;1.50;;;22.20;99.90;;;;;;5081741;28;20182;-75
2021/07/24 09:20:27;;;;;;;2.77;1.70;;;22.20;99.90;;;;;;5082262;28;20690;-75
2021/07/24 09:22:54;;;;;;;3.80;2.40;;;22.20;99.90;;;;;;5054704;28;20201;-75
2021/07/24 09:25:21;;;;;;;2.37;2.07;;;22.20;99.90;;;;;;5048729;28;20429;-76
2021/07/24 09:27:56;;;;;;;4.17;1.97;;;22.30;99.90;;;;;;5064059;28;20602;-76
2021/07/24 09:30:35;;;;;;;1.40;1.30;;;22.20;99.90;;;;;;5043221;28;20435;-75
2021/07/24 09:33:16;;;;;;;3.67;1.67;;;22.20;99.90;;;;;;5046394;28;22376;-75
2021/07/24 09:35:46;;;;;;;2.70;2.37;;;22.20;99.90;;;;;;5053459;28;20424;-76
2021/07/24 09:38:29;;;;;;;9.10;4.90;;;22.10;99.90;;;;;;5067320;28;20424;-75
2021/07/24 09:40:56;;;;;;;3.03;2.23;;;22.10;99.90;;;;;;5069099;28;20571;-75
2021/07/24 09:43:36;;;;;;;1.73;1.53;;;22.10;99.90;;;;;;5063704;28;20495;-76
2021/07/24 09:46:18;;;;;;;6.13;2.70;;;22.10;99.90;;;;;;5065355;28;20420;-75
2021/07/24 09:48:48;;;;;;;3.30;2.70;;;22.20;99.90;;;;;;5064019;28;20455;-76
2021/07/24 09:51:15;;;;;;;1.90;1.73;;;22.20;99.90;;;;;;5065211;28;20456;-75
2021/07/24 09:53:44;;;;;;;1.23;1.13;;;22.20;99.90;;;;;;5065416;28;20494;-73
2021/07/24 09:56:17;;;;;;;1.83;1.73;;;22.30;99.90;;;;;;5067459;28;20429;-73
2021/07/24 09:58:43;;;;;;;2.50;2.07;;;22.40;99.90;;;;;;5076925;28;20432;-73
2021/07/24 10:01:17;;;;;;;4.47;3.17;;;22.40;99.90;;;;;;5070088;28;20470;-73
2021/07/24 10:03:47;;;;;;;2.40;1.80;;;22.50;99.90;;;;;;5070667;28;20523;-73
2021/07/24 10:06:14;;;;;;;3.10;1.53;;;22.50;99.90;;;;;;5076459;28;20951;-73
2021/07/24 10:08:42;;;;;;;1.97;1.87;;;22.60;99.90;;;;;;5069549;28;20922;-73
2021/07/24 10:11:08;;;;;;;2.10;1.83;;;22.50;99.90;;;;;;5069912;28;20779;-73
2021/07/24 10:13:34;;;;;;;3.13;2.87;;;22.50;99.90;;;;;;5064779;28;20448;-73
2021/07/24 10:16:00;;;;;;;1.50;1.40;;;22.40;99.90;;;;;;5041755;28;20575;-74
2021/07/24 10:18:27;;;;;;;1.77;1.67;;;22.50;99.90;;;;;;5068100;28;20174;-74
2021/07/24 10:20:52;;;;;;;3.57;2.00;;;22.50;99.90;;;;;;5071303;28;20452;-74
2021/07/24 10:23:23;;;;;;;2.33;1.30;;;22.60;99.90;;;;;;5072347;28;21022;-74
2021/07/24 10:26:10;;;;;;;1.90;1.70;;;22.60;99.90;;;;;;5068756;28;20224;-72
2021/07/24 10:28:44;;;;;;;1.57;1.07;;;22.70;99.90;;;;;;5071002;28;20450;-73
2021/07/24 10:31:21;;;;;;;3.30;1.83;;;22.70;99.90;;;;;;5069297;28;20790;-73
2021/07/24 10:33:46;;;;;;;2.53;2.33;;;22.70;99.90;;;;;;5082134;28;20452;-74
2021/07/24 10:36:15;;;;;;;4.27;3.23;;;22.80;99.90;;;;;;5088898;28;20520;-72
2021/07/24 10:38:57;;;;;;;2.80;2.17;;;22.80;99.90;;;;;;5073918;28;20261;-73
2021/07/24 10:41:23;;;;;;;2.83;1.50;;;22.90;99.90;;;;;;5054200;28;20547;-73
2021/07/24 10:44:28;;;;;;;2.40;2.20;;;22.90;99.90;;;;;;5051167;28;20543;-73
2021/07/24 10:47:00;;;;;;;2.27;1.93;;;23.00;99.90;;;;;;5073615;28;20205;-73
2021/07/24 10:49:34;;;;;;;2.07;1.47;;;23.10;99.90;;;;;;5055762;28;20435;-72
2021/07/24 10:52:05;;;;;;;3.53;1.73;;;23.00;99.90;;;;;;5074861;28;20438;-73
2021/07/24 10:54:32;;;;;;;2.07;1.97;;;23.10;99.90;;;;;;5072263;28;20432;-73
2021/07/24 10:56:58;;;;;;;6.03;2.50;;;23.10;99.90;;;;;;5073641;28;20499;-73
2021/07/24 10:59:24;;;;;;;4.03;2.30;;;23.10;99.90;;;;;;5075444;28;20391;-73
2021/07/24 11:01:59;;;;;;;1.67;1.57;;;23.10;99.90;;;;;;5075250;28;20439;-73
2021/07/24 11:04:37;;;;;;;8.03;2.90;;;23.00;99.90;;;;;;5074957;28;20451;-74
2021/07/24 11:07:21;;;;;;;2.40;1.83;;;23.00;99.90;;;;;;5074901;28;20922;-73
2021/07/24 11:09:53;;;;;;;3.20;1.80;;;23.00;99.90;;;;;;5074394;28;20423;-72
2021/07/24 11:12:37;;;;;;;3.10;2.33;;;22.90;99.90;;;;;;5073487;28;20500;-74
2021/07/24 11:15:07;;;;;;;3.10;2.03;;;22.90;99.90;;;;;;5073257;28;20492;-73
2021/07/24 11:17:33;;;;;;;2.80;1.97;;;22.90;99.90;;;;;;5074688;28;20424;-73
2021/07/24 11:19:59;;;;;;;1.63;1.53;;;22.90;99.90;;;;;;5074804;28;20598;-73
2021/07/24 11:22:29;;;;;;;2.80;2.00;;;22.90;99.90;;;;;;5074608;28;20416;-73
2021/07/24 11:24:54;;;;;;;1.13;1.03;;;22.90;99.90;;;;;;5074556;28;20967;-73
2021/07/24 11:27:25;;;;;;;2.53;2.33;;;22.90;99.90;;;;;;5056868;28;20409;-73
2021/07/24 11:29:51;;;;;;;3.27;2.20;;;23.00;99.90;;;;;;5064433;28;20280;-73
2021/07/24 11:32:25;;;;;;;5.20;2.30;;;23.00;99.90;;;;;;5074741;28;20495;-73
2021/07/24 11:34:59;;;;;;;2.90;2.13;;;23.00;99.90;;;;;;5072795;28;20173;-74
2021/07/24 11:37:38;;;;;;;4.40;1.97;;;23.00;99.90;;;;;;5074628;28;20766;-73
2021/07/24 11:40:05;;;;;;;1.60;1.50;;;22.90;99.90;;;;;;5074134;28;20447;-74
2021/07/24 11:42:31;;;;;;;3.67;3.37;;;22.90;99.90;;;;;;5074195;28;20527;-73
2021/07/24 11:44:57;;;;;;;5.03;1.70;;;22.90;99.90;;;;;;5074426;28;20577;-73
2021/07/24 11:47:22;;;;;;;1.33;1.23;;;22.80;99.90;;;;;;5073840;28;20646;-73
2021/07/24 11:49:48;;;;;;;4.87;2.50;;;22.80;99.90;;;;;;5073838;28;20655;-73
2021/07/24 11:52:13;;;;;;;1.83;1.30;;;22.80;99.90;;;;;;5075511;28;20183;-73
2021/07/24 11:54:39;;;;;;;2.50;1.97;;;22.80;99.90;;;;;;5074204;28;20534;-73
2021/07/24 11:57:05;;;;;;;2.60;2.00;;;22.70;99.90;;;;;;5073931;28;20244;-74
2021/07/24 11:59:33;;;;;;;1.67;1.17;;;22.70;99.90;;;;;;5074186;28;20174;-72
2021/07/24 12:01:59;;;;;;;3.53;3.23;;;22.60;99.90;;;;;;5080642;28;20407;-73
2021/07/24 12:04:25;;;;;;;3.03;2.93;;;22.60;99.90;;;;;;5079893;28;20464;-72
2021/07/24 12:07:00;;;;;;;2.47;2.03;;;22.60;99.90;;;;;;5073630;28;20474;-73
2021/07/24 12:09:26;;;;;;;3.90;1.90;;;22.50;99.90;;;;;;5073993;28;20416;-72
2021/07/24 12:12:00;;;;;;;2.67;2.47;;;22.50;99.90;;;;;;5074014;28;20412;-73
2021/07/24 12:14:27;;;;;;;1.53;1.37;;;22.50;99.90;;;;;;5073769;28;20839;-73
2021/07/24 12:17:12;;;;;;;3.20;1.47;;;22.50;99.90;;;;;;5073537;28;20932;-75
2021/07/24 12:19:39;;;;;;;3.73;1.60;;;22.40;99.90;;;;;;5073593;28;20777;-74
2021/07/24 12:22:21;;;;;;;3.23;2.47;;;22.40;99.90;;;;;;5090794;28;20486;-74
2021/07/24 12:24:49;;;;;;;2.33;1.83;;;22.40;99.90;;;;;;5081481;28;20412;-74
2021/07/24 12:27:21;;;;;;;3.07;2.37;;;22.40;99.90;;;;;;5073442;28;20443;-74
2021/07/24 12:29:53;;;;;;;2.00;1.80;;;22.30;99.90;;;;;;5073639;28;20516;-74
2021/07/24 12:32:21;;;;;;;3.20;2.00;;;22.20;99.90;;;;;;5073056;28;21097;-75
2021/07/24 12:34:47;;;;;;;4.40;1.57;;;22.20;99.90;;;;;;5072773;28;20431;-75
2021/07/24 12:37:43;;;;;;;2.93;2.20;;;22.20;99.90;;;;;;5073422;28;20758;-75
2021/07/24 12:40:13;;;;;;;3.40;1.80;;;22.10;99.90;;;;;;5051456;28;20451;-74
2021/07/24 12:42:38;;;;;;;3.33;3.03;;;22.10;99.90;;;;;;5055051;28;20452;-75
2021/07/24 12:45:04;;;;;;;2.37;1.90;;;22.00;99.90;;;;;;5072349;28;20755;-75
2021/07/24 12:47:38;;;;;;;4.00;3.67;;;22.00;99.90;;;;;;5087539;28;20261;-75
2021/07/24 12:50:16;;;;;;;3.40;3.00;;;22.00;99.90;;;;;;5082948;28;20772;-74
2021/07/24 12:52:47;;;;;;;3.40;2.77;;;21.90;99.90;;;;;;5073158;28;20444;-75